createdAt,value
2019-02-24T00:00:34.136Z,1035.32
2019-02-24T00:01:44.082Z,1035.25
2019-02-24T00:02:54.016Z,1035.22
2019-02-24T00:04:03.970Z,1035.18
2019-02-24T00:05:13.931Z,1035.17
2019-02-24T00:06:23.874Z,1035.15
2019-02-24T00:07:33.570Z,1035.18
2019-02-24T00:08:43.028Z,1035.17
2019-02-24T00:09:52.960Z,1035.19
2019-02-24T00:11:02.654Z,1035.19
2019-02-24T00:12:12.692Z,1035.23
2019-02-24T00:13:22.378Z,1035.24
2019-02-24T00:14:32.320Z,1035.19
2019-02-24T00:15:42.259Z,1035.19
2019-02-24T00:16:52.215Z,1035.16
2019-02-24T00:18:02.146Z,1035.12
2019-02-24T00:19:12.093Z,1035.07
2019-02-24T00:20:22.039Z,1035.09
2019-02-24T00:21:31.980Z,1035.09
2019-02-24T00:22:41.946Z,1035.07
2019-02-24T00:23:51.398Z,1035.1
2019-02-24T00:25:01.074Z,1035.08
2019-02-24T00:26:10.778Z,1035.1
2019-02-24T00:27:20.716Z,1035.09
2019-02-24T00:28:30.666Z,1035.13
2019-02-24T00:29:40.615Z,1035.13
2019-02-24T00:30:50.576Z,1035.1
2019-02-24T00:32:00.007Z,1035.1
2019-02-24T00:33:09.472Z,1035.1
2019-02-24T00:34:19.178Z,1035.11
2019-02-24T00:35:29.113Z,1035.11
2019-02-24T00:36:39.072Z,1035.09
2019-02-24T00:37:49.021Z,1035.15
2019-02-24T00:38:58.960Z,1035.17
2019-02-24T00:40:08.910Z,1035.18
2019-02-24T00:41:18.850Z,1035.15
2019-02-24T00:42:28.551Z,1035.1
2019-02-24T00:43:38.246Z,1035.01
2019-02-24T00:44:47.926Z,1034.98
2019-02-24T00:45:57.859Z,1034.96
2019-02-24T00:47:07.820Z,1034.91
2019-02-24T00:48:17.790Z,1034.87
2019-02-24T00:49:27.477Z,1034.82
2019-02-24T00:50:37.192Z,1034.81
2019-02-24T00:51:47.121Z,1034.78
2019-02-24T00:52:56.804Z,1034.72
2019-02-24T00:54:06.753Z,1034.7
2019-02-24T00:55:16.689Z,1034.62
2019-02-24T00:56:26.131Z,1034.59
2019-02-24T00:57:35.819Z,1034.61
2019-02-24T00:58:45.760Z,1034.65
2019-02-24T00:59:55.695Z,1034.65
2019-02-24T01:01:05.637Z,1034.68
2019-02-24T01:02:15.572Z,1034.68
2019-02-24T01:03:25.506Z,1034.68
2019-02-24T01:04:35.448Z,1034.72
2019-02-24T01:05:45.394Z,1034.69
2019-02-24T01:06:55.341Z,1034.69
2019-02-24T01:08:05.267Z,1034.69
2019-02-24T01:09:14.950Z,1034.67
2019-02-24T01:10:24.633Z,1034.67
2019-02-24T01:11:34.306Z,1034.68
2019-02-24T01:12:43.996Z,1034.63
2019-02-24T01:13:54.064Z,1034.69
2019-02-24T01:15:04.030Z,1034.7
2019-02-24T01:16:13.960Z,1034.72
2019-02-24T01:17:23.667Z,1034.7
2019-02-24T01:18:33.590Z,1034.67
2019-02-24T01:19:43.527Z,1034.69
2019-02-24T01:20:53.470Z,1034.71
2019-02-24T01:22:03.417Z,1034.73
2019-02-24T01:23:13.350Z,1034.69
2019-02-24T01:24:23.029Z,1034.69
2019-02-24T01:25:32.473Z,1034.72
2019-02-24T01:26:42.200Z,1034.79
2019-02-24T01:27:51.882Z,1034.82
2019-02-24T01:29:01.831Z,1034.87
2019-02-24T01:30:11.786Z,1034.9
2019-02-24T01:31:21.533Z,1034.91
2019-02-24T01:32:31.259Z,1034.93
2019-02-24T01:33:41.247Z,1034.97
2019-02-24T01:34:51.186Z,1035.01
2019-02-24T01:36:01.116Z,1035.05
2019-02-24T01:37:10.819Z,1035.05
2019-02-24T01:38:20.499Z,1035.03
2019-02-24T01:39:30.189Z,1035.06
2019-02-24T01:40:40.142Z,1035.05
2019-02-24T01:41:49.849Z,1035.06
2019-02-24T01:42:59.528Z,1035.06
2019-02-24T01:44:09.460Z,1035.08
2019-02-24T01:45:19.152Z,1035.03
2019-02-24T01:46:29.100Z,1035.09
2019-02-24T01:47:38.537Z,1035.06
2019-02-24T01:48:48.458Z,1035.01
2019-02-24T01:49:58.154Z,1034.98
2019-02-24T01:51:08.105Z,1034.91
2019-02-24T01:52:18.035Z,1034.86
2019-02-24T01:53:27.716Z,1034.79
2019-02-24T01:54:37.157Z,1034.79
2019-02-24T01:55:47.087Z,1034.75
2019-02-24T01:56:56.785Z,1034.77
2019-02-24T01:58:06.207Z,1034.74
2019-02-24T01:59:15.907Z,1034.75
2019-02-24T02:00:25.635Z,1034.74
2019-02-24T02:01:35.596Z,1034.62
2019-02-24T02:02:45.550Z,1034.56
2019-02-24T02:03:55.246Z,1034.55
2019-02-24T02:05:05.190Z,1034.52
2019-02-24T02:06:15.144Z,1034.53
2019-02-24T02:07:24.850Z,1034.56
2019-02-24T02:08:34.537Z,1034.55
2019-02-24T02:09:44.233Z,1034.52
2019-02-24T02:10:53.918Z,1034.53
2019-02-24T02:12:03.860Z,1034.51
2019-02-24T02:13:13.801Z,1034.39
2019-02-24T02:14:23.499Z,1034.37
2019-02-24T02:15:33.429Z,1034.31
2019-02-24T02:16:43.370Z,1034.29
2019-02-24T02:17:53.311Z,1034.23
2019-02-24T02:19:03.227Z,1034.22
2019-02-24T02:20:12.930Z,1034.29
2019-02-24T02:21:22.367Z,1034.24
2019-02-24T02:22:32.295Z,1034.26
2019-02-24T02:23:41.975Z,1034.21
2019-02-24T02:24:51.907Z,1034.28
2019-02-24T02:26:01.835Z,1034.25
2019-02-24T02:27:11.773Z,1034.3
2019-02-24T02:28:21.449Z,1034.36
2019-02-24T02:29:30.893Z,1034.36
2019-02-24T02:30:40.837Z,1034.4
2019-02-24T02:31:50.527Z,1034.45
2019-02-24T02:32:59.958Z,1034.41
2019-02-24T02:34:09.646Z,1034.42
2019-02-24T02:35:19.585Z,1034.34
2019-02-24T02:36:29.286Z,1034.33
2019-02-24T02:37:39.227Z,1034.29
2019-02-24T02:38:49.163Z,1034.25
2019-02-24T02:39:59.111Z,1034.26
2019-02-24T02:41:08.819Z,1034.23
2019-02-24T02:42:18.745Z,1034.24
2019-02-24T02:43:28.440Z,1034.24
2019-02-24T02:44:38.148Z,1034.27
2019-02-24T02:45:47.845Z,1034.24
2019-02-24T02:46:57.542Z,1034.19
2019-02-24T02:48:07.465Z,1034.21
2019-02-24T02:49:17.165Z,1034.15
2019-02-24T02:50:26.616Z,1034.23
2019-02-24T02:51:36.308Z,1034.23
2019-02-24T02:52:45.835Z,1034.2
2019-02-24T02:53:55.797Z,1034.27
2019-02-24T02:55:05.753Z,1034.31
2019-02-24T02:56:15.439Z,1034.39
2019-02-24T02:57:25.141Z,1034.36
2019-02-24T02:58:34.828Z,1034.35
2019-02-24T02:59:54.269Z,1034.28
2019-02-24T03:01:03.996Z,1034.25
2019-02-24T03:02:23.698Z,1034.26
2019-02-24T03:03:33.980Z,1034.18
2019-02-24T03:04:43.914Z,1034.16
2019-02-24T03:05:53.365Z,1034.15
2019-02-24T03:07:03.311Z,1034.21
2019-02-24T03:08:13.012Z,1034.22
2019-02-24T03:09:22.708Z,1034.24
2019-02-24T03:10:32.636Z,1034.19
2019-02-24T03:11:42.577Z,1034.16
2019-02-24T03:12:52.009Z,1034.16
2019-02-24T03:14:01.957Z,1034.14
2019-02-24T03:15:11.653Z,1034.15
2019-02-24T03:16:23.027Z,1034.12
2019-02-24T03:17:32.617Z,1034.17
2019-02-24T03:18:42.357Z,1034.12
2019-02-24T03:19:52.041Z,1034.11
2019-02-24T03:21:01.986Z,1034.07
2019-02-24T03:22:11.941Z,1034.04
2019-02-24T03:23:21.911Z,1034.04
2019-02-24T03:24:31.379Z,1034.01
2019-02-24T03:25:40.813Z,1033.98
2019-02-24T03:26:50.499Z,1033.97
2019-02-24T03:28:00.183Z,1033.92
2019-02-24T03:29:10.134Z,1033.91
2019-02-24T03:30:20.078Z,1033.88
2019-02-24T03:31:29.916Z,1033.89
2019-02-24T03:32:39.905Z,1033.85
2019-02-24T03:33:49.886Z,1033.82
2019-02-24T03:34:59.343Z,1033.86
2019-02-24T03:36:09.042Z,1033.85
2019-02-24T03:37:18.733Z,1033.87
2019-02-24T03:38:28.679Z,1033.95
2019-02-24T03:39:38.374Z,1033.92
2019-02-24T03:40:48.324Z,1033.97
2019-02-24T03:41:58.267Z,1034.01
2019-02-24T03:43:08.205Z,1034.08
2019-02-24T03:44:17.950Z,1034.07
2019-02-24T03:45:27.920Z,1034.08
2019-02-24T03:46:37.602Z,1034.1
2019-02-24T03:47:47.290Z,1034.02
2019-02-24T03:48:57.254Z,1034.04
2019-02-24T03:50:07.220Z,1034.08
2019-02-24T03:51:16.924Z,1034.07
2019-02-24T03:52:26.882Z,1034.1
2019-02-24T03:53:36.809Z,1034.07
2019-02-24T03:54:46.510Z,1034.01
2019-02-24T03:55:57.631Z,1034
2019-02-24T03:57:07.688Z,1034.03
2019-02-24T03:58:17.368Z,1034.05
2019-02-24T03:59:27.034Z,1034.03
2019-02-24T04:00:36.973Z,1034.1
2019-02-24T04:01:46.928Z,1033.99
2019-02-24T04:02:56.354Z,1033.95
2019-02-24T04:04:06.300Z,1033.93
2019-02-24T04:05:16.243Z,1033.93
2019-02-24T04:06:25.960Z,1033.85
2019-02-24T04:07:35.659Z,1033.85
2019-02-24T04:08:45.601Z,1033.9
2019-02-24T04:09:55.565Z,1033.84
2019-02-24T04:11:05.375Z,1033.82
2019-02-24T04:12:15.317Z,1033.85
2019-02-24T04:13:25.252Z,1033.81
2019-02-24T04:14:35.195Z,1033.79
2019-02-24T04:15:45.136Z,1033.72
2019-02-24T04:16:54.824Z,1033.74
2019-02-24T04:18:04.567Z,1033.68
2019-02-24T04:19:14.242Z,1033.68
2019-02-24T04:20:24.193Z,1033.7
2019-02-24T04:21:34.167Z,1033.65
2019-02-24T04:22:43.598Z,1033.63
2019-02-24T04:23:53.294Z,1033.59
2019-02-24T04:25:03.236Z,1033.57
2019-02-24T04:26:13.180Z,1033.58
2019-02-24T04:27:22.858Z,1033.51
2019-02-24T04:28:32.538Z,1033.46
2019-02-24T04:29:42.462Z,1033.44
2019-02-24T04:30:52.456Z,1033.4
2019-02-24T04:32:02.392Z,1033.41
2019-02-24T04:33:12.342Z,1033.4
2019-02-24T04:34:22.328Z,1033.4
2019-02-24T04:35:31.517Z,1033.39
2019-02-24T04:36:41.463Z,1033.43
2019-02-24T04:37:51.433Z,1033.34
2019-02-24T04:39:01.375Z,1033.34
2019-02-24T04:40:11.065Z,1033.37
2019-02-24T04:41:20.748Z,1033.33
2019-02-24T04:42:30.435Z,1033.34
2019-02-24T04:43:40.383Z,1033.33
2019-02-24T04:44:50.096Z,1033.33
2019-02-24T04:46:00.040Z,1033.32
2019-02-24T04:47:09.724Z,1033.41
2019-02-24T04:48:19.432Z,1033.37
2019-02-24T04:49:29.151Z,1033.37
2019-02-24T04:50:39.128Z,1033.4
2019-02-24T04:51:48.832Z,1033.44
2019-02-24T04:52:58.762Z,1033.48
2019-02-24T04:54:08.705Z,1033.51
2019-02-24T04:55:18.641Z,1033.57
2019-02-24T04:56:28.115Z,1033.56
2019-02-24T04:57:38.060Z,1033.6
2019-02-24T04:58:47.856Z,1033.58
2019-02-24T04:59:57.821Z,1033.53
2019-02-24T05:01:07.831Z,1033.51
2019-02-24T05:02:17.794Z,1033.5
2019-02-24T05:03:27.492Z,1033.51
2019-02-24T05:04:37.450Z,1033.52
2019-02-24T05:05:47.395Z,1033.57
2019-02-24T05:06:57.321Z,1033.59
2019-02-24T05:08:07.283Z,1033.61
2019-02-24T05:09:17.231Z,1033.59
2019-02-24T05:10:26.919Z,1033.65
2019-02-24T05:11:36.869Z,1033.65
2019-02-24T05:12:46.822Z,1033.62
2019-02-24T05:13:56.753Z,1033.6
2019-02-24T05:15:06.454Z,1033.66
2019-02-24T05:16:16.419Z,1033.7
2019-02-24T05:17:26.388Z,1033.71
2019-02-24T05:18:36.073Z,1033.7
2019-02-24T05:19:45.758Z,1033.73
2019-02-24T05:20:55.459Z,1033.72
2019-02-24T05:22:05.396Z,1033.71
2019-02-24T05:23:15.334Z,1033.75
2019-02-24T05:24:25.503Z,1033.73
2019-02-24T05:25:35.203Z,1033.78
2019-02-24T05:26:44.650Z,1033.8
2019-02-24T05:27:54.318Z,1033.8
2019-02-24T05:29:04.268Z,1033.82
2019-02-24T05:30:13.970Z,1033.81
2019-02-24T05:31:23.658Z,1033.86
2019-02-24T05:32:33.346Z,1033.85
2019-02-24T05:33:43.276Z,1033.84
2019-02-24T05:34:53.216Z,1033.83
2019-02-24T05:36:02.905Z,1033.82
2019-02-24T05:37:12.336Z,1033.83
2019-02-24T05:38:21.797Z,1033.79
2019-02-24T05:39:31.730Z,1033.81
2019-02-24T05:40:41.661Z,1033.8
2019-02-24T05:41:51.352Z,1033.81
2019-02-24T05:43:01.298Z,1033.81
2019-02-24T05:44:11.244Z,1033.76
2019-02-24T05:45:21.213Z,1033.71
2019-02-24T05:46:30.909Z,1033.68
2019-02-24T05:47:40.361Z,1033.71
2019-02-24T05:48:50.060Z,1033.72
2019-02-24T05:50:00.011Z,1033.7
2019-02-24T05:51:09.946Z,1033.76
2019-02-24T05:52:19.895Z,1033.77
2019-02-24T05:53:29.848Z,1033.74
2019-02-24T05:54:39.796Z,1033.73
2019-02-24T05:55:52.338Z,1033.72
2019-02-24T05:57:02.285Z,1033.71
2019-02-24T05:58:11.987Z,1033.7
2019-02-24T05:59:21.934Z,1033.75
2019-02-24T06:00:31.630Z,1033.74
2019-02-24T06:01:41.332Z,1033.72
2019-02-24T06:02:51.291Z,1033.69
2019-02-24T06:04:01.233Z,1033.65
2019-02-24T06:05:10.932Z,1033.63
2019-02-24T06:06:20.626Z,1033.59
2019-02-24T06:07:30.343Z,1033.55
2019-02-24T06:08:40.907Z,1033.52
2019-02-24T06:09:50.850Z,1033.56
2019-02-24T06:11:00.270Z,1033.54
2019-02-24T06:12:09.968Z,1033.58
2019-02-24T06:13:19.902Z,1033.6
2019-02-24T06:14:29.597Z,1033.59
2019-02-24T06:15:39.523Z,1033.63
2019-02-24T06:16:49.195Z,1033.65
2019-02-24T06:17:59.123Z,1033.63
2019-02-24T06:19:08.807Z,1033.69
2019-02-24T06:20:18.745Z,1033.73
2019-02-24T06:21:28.436Z,1033.7
2019-02-24T06:22:38.493Z,1033.72
2019-02-24T06:23:48.169Z,1033.69
2019-02-24T06:24:57.844Z,1033.66
2019-02-24T06:26:07.897Z,1033.71
2019-02-24T06:27:17.854Z,1033.67
2019-02-24T06:28:27.542Z,1033.68
2019-02-24T06:29:37.501Z,1033.72
2019-02-24T06:30:47.181Z,1033.66
2019-02-24T06:31:56.623Z,1033.7
2019-02-24T06:33:06.590Z,1033.65
2019-02-24T06:34:16.291Z,1033.61
2019-02-24T06:35:25.994Z,1033.6
2019-02-24T06:36:36.505Z,1033.59
2019-02-24T06:37:46.443Z,1033.52
2019-02-24T06:38:55.889Z,1033.52
2019-02-24T06:40:05.570Z,1033.55
2019-02-24T06:41:14.999Z,1033.55
2019-02-24T06:42:24.938Z,1033.57
2019-02-24T06:43:34.380Z,1033.59
2019-02-24T06:44:44.348Z,1033.57
2019-02-24T06:45:54.016Z,1033.61
2019-02-24T06:47:03.955Z,1033.61
2019-02-24T06:48:13.388Z,1033.6
2019-02-24T06:49:23.354Z,1033.64
2019-02-24T06:50:35.495Z,1033.64
2019-02-24T06:51:45.637Z,1033.71
2019-02-24T06:52:55.338Z,1033.73
2019-02-24T06:54:04.785Z,1033.7
2019-02-24T06:55:14.729Z,1033.72
2019-02-24T06:56:24.169Z,1033.74
2019-02-24T06:57:34.114Z,1033.8
2019-02-24T06:58:44.064Z,1033.78
2019-02-24T06:59:53.509Z,1033.83
2019-02-24T07:01:03.248Z,1033.85
2019-02-24T07:02:12.955Z,1033.84
2019-02-24T07:03:22.655Z,1033.83
2019-02-24T07:04:32.332Z,1033.81
2019-02-24T07:05:42.045Z,1033.84
2019-02-24T07:06:51.960Z,1033.84
2019-02-24T07:08:01.396Z,1033.92
2019-02-24T07:09:11.325Z,1033.9
2019-02-24T07:10:22.039Z,1033.93
2019-02-24T07:11:31.727Z,1033.88
2019-02-24T07:12:41.674Z,1033.84
2019-02-24T07:13:51.425Z,1033.87
2019-02-24T07:15:00.866Z,1033.86
2019-02-24T07:16:10.565Z,1033.9
2019-02-24T07:17:20.503Z,1033.87
2019-02-24T07:18:30.447Z,1033.89
2019-02-24T07:19:40.390Z,1033.93
2019-02-24T07:20:50.324Z,1033.88
2019-02-24T07:22:00.394Z,1033.86
2019-02-24T07:23:10.341Z,1033.88
2019-02-24T07:24:20.276Z,1033.89
2019-02-24T07:25:30.238Z,1033.91
2019-02-24T07:26:40.181Z,1033.93
2019-02-24T07:27:50.121Z,1033.89
2019-02-24T07:29:00.955Z,1033.9
2019-02-24T07:30:10.887Z,1033.9
2019-02-24T07:31:28.818Z,1033.89
2019-02-24T07:32:38.762Z,1033.89
2019-02-24T07:33:48.895Z,1033.93
2019-02-24T07:34:58.600Z,1033.94
2019-02-24T07:36:08.607Z,1033.97
2019-02-24T07:37:18.304Z,1033.97
2019-02-24T07:38:28.231Z,1033.99
2019-02-24T07:39:38.173Z,1033.92
2019-02-24T07:40:48.136Z,1033.87
2019-02-24T07:41:58.071Z,1033.9
2019-02-24T07:43:08.007Z,1033.87
2019-02-24T07:44:17.455Z,1033.87
2019-02-24T07:45:27.403Z,1033.92
2019-02-24T07:46:37.095Z,1033.92
2019-02-24T07:47:46.787Z,1033.91
2019-02-24T07:48:56.463Z,1034.01
2019-02-24T07:50:06.399Z,1033.95
2019-02-24T07:51:16.363Z,1033.99
2019-02-24T07:52:26.042Z,1033.91
2019-02-24T07:53:35.982Z,1033.88
2019-02-24T07:54:45.922Z,1033.92
2019-02-24T07:55:55.352Z,1033.96
2019-02-24T07:57:05.297Z,1034
2019-02-24T07:58:14.993Z,1034.07
2019-02-24T07:59:24.952Z,1034.03
2019-02-24T08:00:34.903Z,1033.96
2019-02-24T08:01:44.326Z,1033.97
2019-02-24T08:02:54.259Z,1033.93
2019-02-24T08:04:03.954Z,1033.95
2019-02-24T08:05:13.628Z,1033.98
2019-02-24T08:06:23.325Z,1033.97
2019-02-24T08:07:33.266Z,1033.93
2019-02-24T08:08:43.225Z,1033.9
2019-02-24T08:09:52.901Z,1033.88
2019-02-24T08:11:02.591Z,1033.9
2019-02-24T08:12:12.542Z,1033.89
2019-02-24T08:13:21.971Z,1033.84
2019-02-24T08:14:31.908Z,1033.89
2019-02-24T08:15:41.627Z,1033.83
2019-02-24T08:16:51.311Z,1033.86
2019-02-24T08:18:01.274Z,1033.81
2019-02-24T08:19:11.210Z,1033.86
2019-02-24T08:20:21.135Z,1033.87
2019-02-24T08:21:31.072Z,1033.89
2019-02-24T08:22:41.015Z,1033.86
2019-02-24T08:23:50.946Z,1033.79
2019-02-24T08:25:00.895Z,1033.81
2019-02-24T08:26:10.338Z,1033.79
2019-02-24T08:27:20.283Z,1033.76
2019-02-24T08:28:29.993Z,1033.73
2019-02-24T08:29:39.936Z,1033.74
2019-02-24T08:30:49.880Z,1033.72
2019-02-24T08:31:59.835Z,1033.73
2019-02-24T08:33:09.851Z,1033.75
2019-02-24T08:34:19.800Z,1033.73
2019-02-24T08:35:29.753Z,1033.71
2019-02-24T08:36:39.691Z,1033.69
2019-02-24T08:37:49.381Z,1033.66
2019-02-24T08:38:59.058Z,1033.71
2019-02-24T08:40:08.771Z,1033.72
2019-02-24T08:41:18.475Z,1033.77
2019-02-24T08:42:28.471Z,1033.75
2019-02-24T08:43:38.472Z,1033.75
2019-02-24T08:44:48.198Z,1033.79
2019-02-24T08:45:58.155Z,1033.71
2019-02-24T08:47:08.115Z,1033.65
2019-02-24T08:48:19.215Z,1033.67
2019-02-24T08:49:29.313Z,1033.69
2019-02-24T08:50:39.012Z,1033.7
2019-02-24T08:51:48.954Z,1033.71
2019-02-24T08:52:58.889Z,1033.7
2019-02-24T08:54:08.577Z,1033.77
2019-02-24T08:55:18.258Z,1033.74
2019-02-24T08:56:28.200Z,1033.75
2019-02-24T08:57:37.891Z,1033.75
2019-02-24T08:58:47.587Z,1033.78
2019-02-24T08:59:57.277Z,1033.77
2019-02-24T09:01:07.216Z,1033.85
2019-02-24T09:02:17.181Z,1033.9
2019-02-24T09:03:27.117Z,1033.9
2019-02-24T09:04:36.805Z,1033.86
2019-02-24T09:05:46.774Z,1033.87
2019-02-24T09:06:56.787Z,1033.78
2019-02-24T09:08:06.503Z,1033.8
2019-02-24T09:09:16.459Z,1033.84
2019-02-24T09:10:26.154Z,1033.84
2019-02-24T09:11:36.093Z,1033.75
2019-02-24T09:12:45.792Z,1033.72
2019-02-24T09:13:55.737Z,1033.67
2019-02-24T09:15:05.442Z,1033.71
2019-02-24T09:16:14.890Z,1033.66
2019-02-24T09:17:24.863Z,1033.66
2019-02-24T09:18:34.558Z,1033.67
2019-02-24T09:19:44.249Z,1033.72
2019-02-24T09:20:54.242Z,1033.7
2019-02-24T09:22:03.951Z,1033.71
2019-02-24T09:23:15.405Z,1033.75
2019-02-24T09:24:25.411Z,1033.76
2019-02-24T09:25:35.343Z,1033.74
2019-02-24T09:26:45.299Z,1033.76
2019-02-24T09:27:54.751Z,1033.75
2019-02-24T09:29:04.436Z,1033.8
2019-02-24T09:30:14.392Z,1033.87
2019-02-24T09:31:24.338Z,1033.84
2019-02-24T09:32:33.525Z,1033.84
2019-02-24T09:33:43.480Z,1033.93
2019-02-24T09:34:53.451Z,1033.98
2019-02-24T09:36:03.177Z,1034.04
2019-02-24T09:37:13.148Z,1034.09
2019-02-24T09:38:23.131Z,1034.08
2019-02-24T09:39:33.066Z,1034.06
2019-02-24T09:40:43.009Z,1034.01
2019-02-24T09:41:52.954Z,1033.97
2019-02-24T09:43:02.669Z,1033.97
2019-02-24T09:44:12.645Z,1034.01
2019-02-24T09:45:22.603Z,1033.99
2019-02-24T09:46:32.521Z,1034
2019-02-24T09:47:46.539Z,1034.02
2019-02-24T09:48:56.498Z,1034.03
2019-02-24T09:50:06.447Z,1033.98
2019-02-24T09:51:16.141Z,1033.95
2019-02-24T09:52:26.121Z,1033.99
2019-02-24T09:53:36.055Z,1034.01
2019-02-24T09:54:46.014Z,1034.05
2019-02-24T09:55:55.995Z,1034.06
2019-02-24T09:57:05.733Z,1034.07
2019-02-24T09:58:15.689Z,1034.04
2019-02-24T09:59:25.408Z,1034.05
2019-02-24T10:00:35.371Z,1034.05
2019-02-24T10:01:45.312Z,1034
2019-02-24T10:02:55.268Z,1034.06
2019-02-24T10:04:05.324Z,1034.11
2019-02-24T10:05:15.269Z,1034.12
2019-02-24T10:06:25.241Z,1034.14
2019-02-24T10:07:35.211Z,1034.12
2019-02-24T10:08:45.174Z,1034.11
2019-02-24T10:09:55.132Z,1034.09
2019-02-24T10:11:04.839Z,1034.09
2019-02-24T10:12:16.196Z,1034.04
2019-02-24T10:13:25.658Z,1034.01
2019-02-24T10:14:35.614Z,1033.99
2019-02-24T10:15:45.565Z,1034.01
2019-02-24T10:16:55.529Z,1033.99
2019-02-24T10:18:05.502Z,1033.96
2019-02-24T10:19:14.954Z,1033.95
2019-02-24T10:20:24.660Z,1033.93
2019-02-24T10:21:34.378Z,1033.93
2019-02-24T10:22:44.392Z,1033.9
2019-02-24T10:23:53.891Z,1033.92
2019-02-24T10:25:05.861Z,1033.95
2019-02-24T10:26:15.992Z,1033.97
2019-02-24T10:27:25.942Z,1033.94
2019-02-24T10:28:35.657Z,1033.97
2019-02-24T10:29:45.617Z,1033.99
2019-02-24T10:30:55.630Z,1033.98
2019-02-24T10:32:06.849Z,1034.03
2019-02-24T10:33:16.592Z,1034.02
2019-02-24T10:34:26.603Z,1033.98
2019-02-24T10:35:36.590Z,1033.98
2019-02-24T10:36:46.539Z,1033.97
2019-02-24T10:37:56.260Z,1033.98
2019-02-24T10:39:06.221Z,1034
2019-02-24T10:40:15.938Z,1034.02
2019-02-24T10:41:25.637Z,1034.04
2019-02-24T10:42:35.357Z,1034.07
2019-02-24T10:43:45.313Z,1034.12
2019-02-24T10:44:55.036Z,1034.1
2019-02-24T10:46:04.747Z,1034.09
2019-02-24T10:47:16.313Z,1034
2019-02-24T10:48:26.282Z,1033.96
2019-02-24T10:49:35.979Z,1033.91
2019-02-24T10:50:45.937Z,1033.93
2019-02-24T10:51:55.632Z,1033.92
2019-02-24T10:53:05.607Z,1033.94
2019-02-24T10:54:15.552Z,1033.97
2019-02-24T10:55:25.271Z,1033.98
2019-02-24T10:56:34.981Z,1033.95
2019-02-24T10:57:44.687Z,1033.97
2019-02-24T10:58:54.408Z,1033.99
2019-02-24T11:00:03.620Z,1033.97
2019-02-24T11:01:13.332Z,1033.98
2019-02-24T11:02:32.092Z,1034.01
2019-02-24T11:03:42.072Z,1033.97
2019-02-24T11:04:52.021Z,1033.93
2019-02-24T11:06:01.992Z,1033.94
2019-02-24T11:07:11.958Z,1033.93
2019-02-24T11:08:21.917Z,1033.93
2019-02-24T11:09:31.635Z,1033.94
2019-02-24T11:10:41.588Z,1033.9
2019-02-24T11:11:51.298Z,1033.84
2019-02-24T11:13:01.270Z,1033.85
2019-02-24T11:14:11.218Z,1033.85
2019-02-24T11:15:21.177Z,1033.83
2019-02-24T11:16:32.213Z,1033.88
2019-02-24T11:17:42.277Z,1033.88
2019-02-24T11:18:52.029Z,1033.87
2019-02-24T11:20:02.007Z,1033.85
2019-02-24T11:21:11.715Z,1033.85
2019-02-24T11:22:21.675Z,1033.89
2019-02-24T11:23:31.404Z,1033.89
2019-02-24T11:24:41.360Z,1033.84
2019-02-24T11:25:51.320Z,1033.86
2019-02-24T11:27:01.288Z,1033.89
2019-02-24T11:28:10.482Z,1033.91
2019-02-24T11:29:20.442Z,1033.99
2019-02-24T11:30:30.437Z,1033.99
2019-02-24T11:31:40.389Z,1033.97
2019-02-24T11:32:49.846Z,1033.93
2019-02-24T11:33:59.853Z,1033.91
2019-02-24T11:35:09.824Z,1033.96
2019-02-24T11:36:19.794Z,1033.92
2019-02-24T11:37:29.759Z,1033.93
2019-02-24T11:38:39.834Z,1033.9
2019-02-24T11:39:49.289Z,1033.92
2019-02-24T11:40:59.449Z,1033.9
2019-02-24T11:42:09.186Z,1033.86
2019-02-24T11:43:19.155Z,1033.86
2019-02-24T11:44:28.608Z,1033.83
2019-02-24T11:45:38.066Z,1033.89
2019-02-24T11:46:48.054Z,1033.92
2019-02-24T11:47:58.019Z,1033.94
2019-02-24T11:49:07.734Z,1033.9
2019-02-24T11:50:17.431Z,1033.92
2019-02-24T11:51:26.893Z,1033.92
2019-02-24T11:52:36.848Z,1033.89
2019-02-24T11:53:46.809Z,1033.88
2019-02-24T11:54:56.505Z,1033.84
2019-02-24T11:56:06.471Z,1033.87
2019-02-24T11:57:16.484Z,1033.91
2019-02-24T11:58:26.447Z,1033.95
2019-02-24T11:59:36.416Z,1033.98
2019-02-24T12:00:46.390Z,1034.02
2019-02-24T12:01:56.353Z,1034.01
2019-02-24T12:03:06.072Z,1034.02
2019-02-24T12:04:16.028Z,1034.03
2019-02-24T12:05:25.731Z,1033.97
2019-02-24T12:06:35.441Z,1033.95
2019-02-24T12:07:45.143Z,1033.91
2019-02-24T12:08:55.100Z,1033.86
2019-02-24T12:10:12.854Z,1033.84
2019-02-24T12:11:22.565Z,1033.82
2019-02-24T12:12:32.533Z,1033.8
2019-02-24T12:13:42.244Z,1033.77
2019-02-24T12:14:52.218Z,1033.79
2019-02-24T12:16:02.195Z,1033.84
2019-02-24T12:17:12.170Z,1033.8
2019-02-24T12:18:22.124Z,1033.83
2019-02-24T12:19:31.820Z,1033.82
2019-02-24T12:20:41.542Z,1033.8
2019-02-24T12:21:51.513Z,1033.78
2019-02-24T12:23:01.467Z,1033.74
2019-02-24T12:24:11.432Z,1033.77
2019-02-24T12:25:21.145Z,1033.77
2019-02-24T12:26:31.102Z,1033.74
2019-02-24T12:27:42.812Z,1033.73
2019-02-24T12:28:52.258Z,1033.75
2019-02-24T12:30:02.229Z,1033.73
2019-02-24T12:31:11.421Z,1033.76
2019-02-24T12:32:21.406Z,1033.76
2019-02-24T12:33:31.377Z,1033.81
2019-02-24T12:34:41.102Z,1033.77
2019-02-24T12:35:51.072Z,1033.74
2019-02-24T12:37:00.792Z,1033.69
2019-02-24T12:38:10.757Z,1033.68
2019-02-24T12:39:20.499Z,1033.61
2019-02-24T12:40:30.472Z,1033.64
2019-02-24T12:41:40.188Z,1033.65
2019-02-24T12:42:49.900Z,1033.69
2019-02-24T12:43:59.939Z,1033.65
2019-02-24T12:45:09.906Z,1033.66
2019-02-24T12:46:19.869Z,1033.65
2019-02-24T12:47:29.861Z,1033.61
2019-02-24T12:48:39.840Z,1033.61
2019-02-24T12:49:49.582Z,1033.53
2019-02-24T12:51:08.168Z,1033.57
2019-02-24T12:52:18.140Z,1033.53
2019-02-24T12:53:28.408Z,1033.49
2019-02-24T12:54:37.852Z,1033.46
2019-02-24T12:55:47.835Z,1033.47
2019-02-24T12:56:57.298Z,1033.48
2019-02-24T12:58:07.495Z,1033.48
2019-02-24T12:59:17.561Z,1033.53
2019-02-24T13:00:27.542Z,1033.53
2019-02-24T13:01:37.493Z,1033.51
2019-02-24T13:02:49.477Z,1033.45
2019-02-24T13:03:59.218Z,1033.45
2019-02-24T13:05:08.932Z,1033.44
2019-02-24T13:06:18.927Z,1033.44
2019-02-24T13:07:28.902Z,1033.46
2019-02-24T13:08:38.858Z,1033.48
2019-02-24T13:09:48.593Z,1033.44
2019-02-24T13:10:58.307Z,1033.45
2019-02-24T13:12:08.038Z,1033.4
2019-02-24T13:13:18.016Z,1033.39
2019-02-24T13:14:27.732Z,1033.37
2019-02-24T13:15:37.688Z,1033.39
2019-02-24T13:16:47.691Z,1033.36
2019-02-24T13:17:57.650Z,1033.32
2019-02-24T13:19:07.614Z,1033.3
2019-02-24T13:20:17.585Z,1033.36
2019-02-24T13:21:27.290Z,1033.34
2019-02-24T13:22:37.252Z,1033.29
2019-02-24T13:23:47.219Z,1033.26
2019-02-24T13:24:57.198Z,1033.2
2019-02-24T13:26:07.149Z,1033.14
2019-02-24T13:27:17.143Z,1033.19
2019-02-24T13:28:27.107Z,1033.18
2019-02-24T13:29:37.070Z,1033.18
2019-02-24T13:30:47.053Z,1033.13
2019-02-24T13:31:57.022Z,1033.19
2019-02-24T13:33:15.083Z,1033.09
2019-02-24T13:34:25.057Z,1033.07
2019-02-24T13:35:36.127Z,1033.13
2019-02-24T13:36:47.977Z,1033.12
2019-02-24T13:37:57.960Z,1033.08
2019-02-24T13:39:07.915Z,1033.12
2019-02-24T13:40:17.626Z,1033.1
2019-02-24T13:41:27.604Z,1033.13
2019-02-24T13:42:37.577Z,1033.16
2019-02-24T13:43:47.293Z,1033.15
2019-02-24T13:44:56.764Z,1033.16
2019-02-24T13:46:06.723Z,1033.17
2019-02-24T13:47:16.415Z,1033.18
2019-02-24T13:48:26.123Z,1033.18
2019-02-24T13:49:36.096Z,1033.16
2019-02-24T13:50:45.966Z,1033.14
2019-02-24T13:51:55.940Z,1033.2
2019-02-24T13:53:05.414Z,1033.16
2019-02-24T13:54:15.156Z,1033.09
2019-02-24T13:55:24.847Z,1033.06
2019-02-24T13:56:34.785Z,1033.04
2019-02-24T13:57:45.910Z,1033.07
2019-02-24T13:58:55.624Z,1033.12
2019-02-24T14:00:05.378Z,1033.16
2019-02-24T14:01:15.121Z,1033.13
2019-02-24T14:02:24.832Z,1033.11
2019-02-24T14:03:34.818Z,1033.13
2019-02-24T14:04:44.780Z,1033.12
2019-02-24T14:05:54.736Z,1033.03
2019-02-24T14:07:04.448Z,1033.03
2019-02-24T14:08:14.416Z,1033.05
2019-02-24T14:09:24.395Z,1033.06